Santuari del Coll - Susqueda





Hora UTC 17:10
Temperatura 5.5 ºC
Humitat 70.0 %
Pressió 1030.6 hPa
Pluja 0.0 mm
Velocitat vent 0.0 km/h
Direcció vent SE

Dades diàries 2022-01-25



Hora UTC (hivern +1h; estiu +2h)
Temperatura (ºC) Humitat (%) Pressió (hPa) Velocitat vent (km/h) Precipitació (mm)
Hora UTC Aire Humitat Pressió Vel. Dir. Vel. Max Dir. Intent. màx 5 min.
00:05 2.8 78.0 1031.1 6.4 W 6.4 0.0
00:10 2.8 78.0 1031.1 9.7 W 11.3 0.0
00:15 2.8 78.0 1031.1 3.2 WSW 11.3 0.0
00:20 2.8 78.0 1031.0 3.2 SW 12.9 0.0
00:25 2.8 78.0 1031.0 1.6 SW 12.9 0.0
00:30 2.8 78.0 1030.9 1.6 WSW 6.4 0.0
00:35 2.8 78.0 1030.8 1.6 WSW 6.4 0.0
00:40 2.7 78.0 1030.8 0.0 SW 6.4 0.0
00:45 2.7 78.0 1031.0 3.2 WSW 3.2 0.0
00:50 2.7 79.0 1030.9 3.2 WSW 6.4 0.0
00:55 2.6 79.0 1030.9 0.0 WSW 6.4 0.0
01:00 2.6 79.0 1030.9 0.0 SW 4.8 0.0
01:05 2.6 79.0 1031.0 1.6 SW 4.8 0.0
01:10 2.5 80.0 1031.0 0.0 SW 4.8 0.0
01:15 2.6 79.0 1031.1 0.0 SW 1.6 0.0
01:20 2.6 78.0 1031.1 0.0 SW 0.0 0.0
01:25 2.7 77.0 1031.1 0.0 SW 0.0 0.0
01:30 2.7 75.0 1031.1 0.0 SW 0.0 0.0
01:35 2.8 75.0 1031.1 0.0 SW 0.0 0.0
01:40 2.9 72.0 1031.1 0.0 SW 0.0 0.0
01:45 3.1 71.0 1031.1 0.0 SW 0.0 0.0
01:50 3.1 71.0 1031.1 0.0 SW 0.0 0.0
01:55 3.2 70.0 1031.1 0.0 SW 0.0 0.0
02:00 3.2 71.0 1031.2 0.0 SW 0.0 0.0
02:05 3.2 69.0 1031.2 0.0 SW 0.0 0.0
02:10 3.3 69.0 1031.2 0.0 SW 0.0 0.0
02:15 3.2 68.0 1031.2 0.0 SW 0.0 0.0
02:20 3.3 68.0 1031.2 0.0 SW 0.0 0.0
02:25 3.3 68.0 1031.1 0.0 SW 0.0 0.0
02:30 3.3 68.0 1031.1 0.0 WSW 0.0 0.0
02:35 3.3 68.0 1031.1 0.0 SW 3.2 0.0
02:40 3.2 68.0 1031.1 0.0 SW 3.2 0.0
02:45 3.2 68.0 1031.1 0.0 SW 3.2 0.0
02:50 3.2 68.0 1031.0 0.0 SW 3.2 0.0
02:55 3.3 68.0 1031.1 0.0 WSW 4.8 0.0
03:00 3.3 69.0 1031.0 1.6 WSW 6.4 0.0
03:05 3.4 69.0 1030.9 0.0 WSW 6.4 0.0
03:10 3.4 69.0 1030.9 1.6 WSW 4.8 0.0
03:15 3.4 69.0 1030.9 3.2 WSW 6.4 0.0
03:20 3.5 69.0 1030.9 0.0 WSW 6.4 0.0
03:25 3.5 69.0 1030.9 1.6 WSW 6.4 0.0
03:30 3.6 68.0 1030.9 3.2 SW 6.4 0.0
03:35 3.6 66.0 1031.0 4.8 WSW 6.4 0.0
03:40 3.7 65.0 1030.9 1.6 WSW 6.4 0.0
03:45 3.8 65.0 1030.9 3.2 W 6.4 0.0
03:50 3.8 66.0 1030.9 0.0 WSW 4.8 0.0
03:55 3.8 66.0 1030.9 0.0 WSW 4.8 0.0
04:00 3.8 66.0 1031.0 3.2 WSW 3.2 0.0
04:05 3.8 65.0 1031.0 1.6 WSW 4.8 0.0
04:10 3.8 64.0 1030.9 1.6 WSW 4.8 0.0
04:15 3.7 64.0 1030.8 0.0 WSW 3.2 0.0
04:20 3.6 63.0 1030.8 0.0 WSW 3.2 0.0
04:25 3.6 62.0 1030.9 0.0 WSW 3.2 0.0
04:30 3.6 62.0 1030.7 0.0 WSW 0.0 0.0
04:35 3.5 63.0 1030.7 0.0 WSW 0.0 0.0
04:40 3.5 63.0 1030.6 0.0 WSW 0.0 0.0
04:45 3.4 62.0 1030.6 0.0 WSW 0.0 0.0
04:50 3.4 62.0 1030.7 0.0 WSW 4.8 0.0
04:55 3.4 61.0 1030.6 0.0 WSW 3.2 0.0
05:00 3.4 61.0 1030.7 0.0 SW 3.2 0.0
05:05 3.4 61.0 1030.6 0.0 WSW 3.2 0.0
05:05 3.5 61.0 1030.6 0.0 WSW 3.2 0.0
05:15 0.0
05:20 0.0
05:25 0.0
05:30 0.0
05:35 0.0
05:40 0.0
05:45 0.0
05:50 0.0
05:55 0.0
06:00 0.0
06:05 0.0
06:10 0.0
06:15 0.0
06:20 0.0
06:25 0.0
06:30 0.0
06:35 0.0
06:40 0.0
06:45 0.0
06:50 0.0
06:55 0.0
07:00 0.0
07:05 0.0
07:10 0.0
07:15 0.0
07:20 0.0
07:25 0.0
07:30 0.0
07:35 0.0
07:40 0.0
07:45 0.0
07:50 0.0
07:55 0.0
08:00 0.0
08:05 0.0
08:10 0.0
08:20 0.0
08:25 0.0
08:30 0.0
08:35 0.0
08:40 0.0
08:45 0.0
08:50 0.0
08:55 0.0
09:00 0.0
09:05 0.0
09:10 0.0
09:15 6.1 69.0 1031.6 3.2 WSW 9.7 0.0
09:20 6.2 68.0 1031.7 1.6 SSW 9.7 0.0
09:25 6.4 69.0 1031.6 0.0 SSW 9.7 0.0
09:30 6.7 67.0 1031.6 3.2 SW 8.0 0.0
09:35 6.9 66.0 1031.7 0.0 SSW 8.0 0.0
09:40 7.2 66.0 1031.7 0.0 S 8.0 0.0
09:45 7.4 65.0 1031.8 3.2 WSW 4.8 0.0
09:50 7.7 66.0 1031.9 0.0 S 8.0 0.0
09:55 7.9 66.0 1032.0 3.2 SSE 8.0 0.0
10:00 8.2 65.0 1032.0 0.0 SSE 8.0 0.0
10:05 8.3 65.0 1032.1 0.0 SSE 4.8 0.0
10:10 8.4 64.0 1032.0 0.0 SSE 4.8 0.0
10:15 8.6 64.0 1032.0 0.0 SSE 4.8 0.0
10:20 8.7 64.0 1032.0 0.0 SSE 4.8 0.0
10:25 8.8 63.0 1032.1 0.0 SE 4.8 0.0
10:30 9.0 65.0 1032.1 1.6 SE 4.8 0.0
10:35 9.1 64.0 1032.2 1.6 SE 6.4 0.0
10:40 9.2 64.0 1032.1 3.2 SE 6.4 0.0
10:45 9.2 65.0 1032.1 3.2 SE 6.4 0.0
10:50 9.3 63.0 1032.1 0.0 ESE 6.4 0.0
10:55 9.4 64.0 1032.1 0.0 ESE 6.4 0.0
11:00 9.5 65.0 1032.1 0.0 ESE 3.2 0.0
11:05 9.5 64.0 1032.0 1.6 ESE 4.8 0.0
11:10 9.6 64.0 1031.9 3.2 ESE 4.8 0.0
11:15 9.6 64.0 1031.9 0.0 ESE 4.8 0.0
11:20 9.7 64.0 1031.9 0.0 ESE 3.2 0.0
11:25 9.7 63.0 1031.8 1.6 ESE 3.2 0.0
11:30 9.7 65.0 1031.7 1.6 ESE 4.8 0.0
11:35 9.7 64.0 1031.8 3.2 ESE 4.8 0.0
11:40 9.7 64.0 1031.7 3.2 ESE 4.8 0.0
11:45 9.8 65.0 1031.6 1.6 ESE 4.8 0.0
11:50 9.8 64.0 1031.6 3.2 ESE 6.4 0.0
11:55 9.8 64.0 1031.5 1.6 ESE 6.4 0.0
12:00 9.8 63.0 1031.5 3.2 ESE 4.8 0.0
12:05 9.8 63.0 1031.5 0.0 ESE 4.8 0.0
12:10 9.7 64.0 1031.5 0.0 ESE 4.8 0.0
12:15 9.7 65.0 1031.4 0.0 ESE 0.0 0.0
12:20 9.7 64.0 1031.4 3.2 ESE 4.8 0.0
12:25 9.7 65.0 1031.3 1.6 ESE 6.4 0.0
12:30 9.6 64.0 1031.4 3.2 ESE 6.4 0.0
12:35 9.6 65.0 1031.3 0.0 ESE 4.8 0.0
12:40 9.6 64.0 1031.2 0.0 ESE 4.8 0.0
12:45 9.6 63.0 1031.2 0.0 WNW 8.0 0.0
12:50 9.7 64.0 1031.1 0.0 SSW 8.0 0.0
12:55 9.8 64.0 1031.0 0.0 SE 3.2 0.0
13:00 9.8 65.0 1031.0 0.0 SE 3.2 0.0
13:05 9.9 65.0 1030.9 3.2 SSE 4.8 0.0
13:10 10.1 65.0 1030.8 0.0 SSE 4.8 0.0
13:15 10.1 66.0 1030.8 0.0 SSE 0.0 0.0
13:20 10.2 61.0 1030.7 3.2 SSW 4.8 0.0
13:25 10.3 61.0 1030.7 6.4 W 11.3 0.0
13:30 10.6 62.0 1030.7 1.6 SSE 11.3 0.0
13:35 10.7 63.0 1030.7 0.0 SSE 3.2 0.0
13:40 10.8 58.0 1030.6 4.8 WSW 4.8 0.0
13:45 10.9 56.0 1030.6 1.6 SW 8.0 0.0
13:50 10.9 56.0 1030.5 1.6 W 8.0 0.0
13:55 11.0 56.0 1030.5 0.0 WSW 6.4 0.0
14:00 11.0 58.0 1030.5 0.0 SW 6.4 0.0
14:05 11.1 56.0 1030.5 0.0 WSW 6.4 0.0
14:10 11.1 55.0 1030.4 0.0 WNW 11.3 0.0
14:15 11.2 56.0 1030.4 0.0 SSE 6.4 0.0
14:20 11.2 56.0 1030.4 0.0 W 6.4 0.0
14:25 11.2 57.0 1030.4 1.6 SW 6.4 0.0
14:30 11.2 57.0 1030.4 0.0 WSW 6.4 0.0
14:35 11.2 58.0 1030.4 0.0 WSW 6.4 0.0
14:40 11.3 56.0 1030.4 0.0 SW 6.4 0.0
14:45 11.4 57.0 1030.4 0.0 SSW 6.4 0.0
14:50 11.4 54.0 1030.4 1.6 SSW 3.2 0.0
14:55 11.4 56.0 1030.4 1.6 SW 3.2 0.0
15:00 11.4 53.0 1030.4 0.0 S 11.3 0.0
15:05 11.3 54.0 1030.5 0.0 SSW 11.3 0.0
15:10 11.3 54.0 1030.5 3.2 WSW 6.4 0.0
15:15 11.2 54.0 1030.5 0.0 WSW 6.4 0.0
15:20 10.9 54.0 1030.4 1.6 SSW 3.2 0.0
15:25 10.7 54.0 1030.5 0.0 SSW 6.4 0.0
15:30 10.3 55.0 1030.3 1.6 W 6.4 0.0
15:35 9.9 54.0 1030.3 1.6 SW 8.0 0.0
15:40 9.5 56.0 1030.4 1.6 WNW 9.7 0.0
15:45 9.1 57.0 1030.2 0.0 SW 9.7 0.0
15:45 8.9 59.0 1030.3 0.0 SE 4.8 0.0
15:55 8.6 60.0 1030.3 4.8 WSW 8.0 0.0
16:00 8.3 61.0 1030.3 4.8 WSW 8.0 0.0
16:05 8.0 61.0 1030.4 0.0 WSW 6.4 0.0
16:10 7.8 61.0 1030.3 1.6 WSW 6.4 0.0
16:15 7.6 62.0 1030.3 1.6 WSW 6.4 0.0
16:20 7.3 63.0 1030.4 0.0 WSW 8.0 0.0
16:25 7.2 63.0 1030.3 0.0 WSW 4.8 0.0
16:30 6.9 64.0 1030.4 0.0 NW 6.4 0.0
16:35 6.8 65.0 1030.4 0.0 E 8.0 0.0
16:40 6.6 66.0 1030.3 0.0 E 4.8 0.0
16:45 6.4 66.0 1030.3 4.8 NW 6.4 0.0
16:50 6.2 68.0 1030.4 0.0 NE 6.4 0.0
16:55 6.1 69.0 1030.3 0.0 NE 4.8 0.0
17:00 5.9 70.0 1030.4 0.0 NNW 3.2 0.0
17:05 5.7 70.0 1030.5 0.0 SE 3.2 0.0
17:10 5.5 70.0 1030.6 0.0 SE 3.2 0.0
Màxima 11.4 80.0 1032.2 9.7 W 12.9 0.0
Mínima 2.5 53.0 1030.2
Total 0.0